Time;durP1;ratioP1;P1;durP2;ratioP2;P2;SDS_P1;SDS_P2;PMS_P1;PMS_P2;Temp;Humidity;BMP_temperature;BMP_pressure;BME280_temperature;BME280_humidity;BME280_pressure;Samples;Min_cycle;Max_cycle;Signal;HPM_P1;HPM_P2
2021/12/27 00:01:55;;;;;;;0.90;0.90;;;;;;;;;;5095872;28;20408;-73
2021/12/27 00:04:21;;;;;;;1.13;1.13;;;;;;;;;;5096285;28;20424;-73
2021/12/27 00:06:47;;;;;;;0.80;0.80;;;;;;;;;;5095997;28;20419;-73
2021/12/27 00:09:13;;;;;;;0.63;0.63;;;;;;;;;;5095834;28;20837;-72
2021/12/27 00:11:40;;;;;;;0.60;0.60;;;;;;;;;;5095732;28;20432;-72
2021/12/27 00:14:06;;;;;;;1.07;0.73;;;;;;;;;;5095967;28;20837;-72
2021/12/27 00:16:32;;;;;;;0.60;0.60;;;;;;;;;;5096046;28;20413;-72
2021/12/27 00:18:58;;;;;;;0.60;0.60;;;;;;;;;;5095405;28;20416;-72
2021/12/27 00:21:26;;;;;;;0.80;0.70;;;;;;;;;;5096232;28;20811;-72
2021/12/27 00:23:52;;;;;;;0.50;0.50;;;;;;;;;;5095437;28;20424;-72
2021/12/27 00:26:18;;;;;;;0.67;0.67;;;;;;;;;;5095826;28;20416;-72
2021/12/27 00:28:44;;;;;;;0.50;0.50;;;;;;;;;;5095470;28;21021;-72
2021/12/27 00:31:10;;;;;;;2.27;0.57;;;;;;;;;;5095566;28;20782;-72
2021/12/27 00:33:36;;;;;;;0.50;0.50;;;;;;;;;;5095996;28;20542;-72
2021/12/27 00:36:02;;;;;;;1.23;0.77;;;;;;;;;;5095337;28;20416;-72
2021/12/27 00:38:28;;;;;;;1.27;0.50;;;;;;;;;;5095554;28;20468;-73
2021/12/27 00:40:54;;;;;;;0.47;0.47;;;;;;;;;;5095652;28;20408;-72
2021/12/27 00:43:20;;;;;;;2.93;0.90;;;;;;;;;;5095049;28;20428;-73
2021/12/27 00:45:47;;;;;;;0.63;0.60;;;;;;;;;;5095859;28;20411;-73
2021/12/27 00:48:15;;;;;;;0.60;0.60;;;;;;;;;;5095194;28;20823;-73
2021/12/27 00:50:41;;;;;;;0.50;0.50;;;;;;;;;;5095251;28;20776;-73
2021/12/27 00:53:07;;;;;;;1.63;0.60;;;;;;;;;;5094833;28;20503;-72
2021/12/27 00:55:33;;;;;;;0.43;0.43;;;;;;;;;;5094956;28;20453;-73
2021/12/27 00:57:59;;;;;;;0.60;0.60;;;;;;;;;;5094882;28;20424;-73
2021/12/27 01:00:26;;;;;;;0.40;0.40;;;;;;;;;;5094947;28;20785;-72
2021/12/27 01:02:53;;;;;;;0.50;0.50;;;;;;;;;;5094736;28;20452;-73
2021/12/27 01:05:19;;;;;;;1.57;0.60;;;;;;;;;;5095854;28;20420;-72
2021/12/27 01:07:46;;;;;;;0.43;0.43;;;;;;;;;;5094554;28;20447;-73
2021/12/27 01:10:33;;;;;;;0.50;0.40;;;;;;;;;;5094675;28;20198;-73
2021/12/27 01:18:06;;;;;;;0.40;0.40;;;;;;;;;;5094734;28;20462;-72
2021/12/27 01:20:32;;;;;;;2.37;0.50;;;;;;;;;;5094794;28;20423;-72
2021/12/27 01:22:58;;;;;;;0.40;0.40;;;;;;;;;;5094847;28;20413;-72
2021/12/27 01:25:24;;;;;;;0.87;0.87;;;;;;;;;;5094615;28;20478;-72
2021/12/27 01:27:52;;;;;;;0.50;0.50;;;;;;;;;;5094513;28;21255;-73
2021/12/27 01:30:19;;;;;;;0.50;0.50;;;;;;;;;;5093812;28;20436;-72
2021/12/27 01:32:50;;;;;;;0.37;0.37;;;;;;;;;;5094453;28;20417;-73
2021/12/27 01:35:16;;;;;;;0.47;0.47;;;;;;;;;;5094824;28;20409;-73
2021/12/27 01:37:42;;;;;;;1.20;0.80;;;;;;;;;;5094231;28;20473;-73
2021/12/27 01:40:09;;;;;;;1.33;0.80;;;;;;;;;;5094406;28;20445;-72
2021/12/27 01:42:36;;;;;;;0.40;0.40;;;;;;;;;;5094122;28;20413;-72
2021/12/27 01:45:03;;;;;;;0.60;0.40;;;;;;;;;;5094188;28;20776;-73
2021/12/27 01:47:31;;;;;;;0.40;0.40;;;;;;;;;;5094392;28;20507;-73
2021/12/27 01:49:57;;;;;;;1.33;0.43;;;;;;;;;;5094378;28;20436;-72
2021/12/27 01:52:23;;;;;;;0.50;0.50;;;;;;;;;;5095069;28;20500;-72
2021/12/27 01:54:50;;;;;;;0.70;0.50;;;;;;;;;;5093751;28;20885;-72
2021/12/27 01:57:16;;;;;;;0.53;0.53;;;;;;;;;;5094481;28;20409;-72
2021/12/27 01:59:42;;;;;;;0.30;0.30;;;;;;;;;;5093655;28;20610;-72
2021/12/27 02:02:08;;;;;;;0.30;0.30;;;;;;;;;;5094047;28;20814;-72
2021/12/27 02:04:34;;;;;;;1.03;0.83;;;;;;;;;;5093802;28;20424;-72
2021/12/27 02:07:00;;;;;;;0.30;0.30;;;;;;;;;;5093692;28;20413;-72
2021/12/27 02:09:37;;;;;;;0.50;0.50;;;;;;;;;;5093852;28;20879;-73
2021/12/27 02:12:03;;;;;;;1.03;0.60;;;;;;;;;;5109410;28;20451;-72
2021/12/27 02:14:29;;;;;;;0.40;0.40;;;;;;;;;;5094695;28;20486;-72
2021/12/27 02:16:55;;;;;;;1.70;0.60;;;;;;;;;;5094153;28;20421;-72
2021/12/27 02:19:21;;;;;;;0.80;0.43;;;;;;;;;;5093784;28;20534;-72
2021/12/27 02:21:47;;;;;;;0.40;0.40;;;;;;;;;;5093436;28;20926;-72
2021/12/27 02:24:13;;;;;;;0.50;0.50;;;;;;;;;;5093535;28;20424;-72
2021/12/27 02:26:40;;;;;;;0.60;0.60;;;;;;;;;;5093717;28;20401;-73
2021/12/27 02:29:09;;;;;;;3.13;0.67;;;;;;;;;;5094251;28;20524;-73
2021/12/27 02:31:39;;;;;;;0.40;0.40;;;;;;;;;;5093565;28;20413;-72
2021/12/27 02:34:07;;;;;;;0.40;0.40;;;;;;;;;;5093751;28;20419;-72
2021/12/27 02:36:33;;;;;;;0.87;0.40;;;;;;;;;;5093672;28;20467;-72
2021/12/27 02:38:59;;;;;;;2.37;0.40;;;;;;;;;;5093224;28;20427;-72
2021/12/27 02:41:25;;;;;;;0.50;0.50;;;;;;;;;;5093196;28;20413;-73
2021/12/27 02:43:51;;;;;;;0.57;0.57;;;;;;;;;;5093476;28;20433;-72
2021/12/27 02:46:17;;;;;;;2.10;0.47;;;;;;;;;;5093527;28;20452;-74
2021/12/27 02:48:46;;;;;;;0.40;0.40;;;;;;;;;;5093122;28;20475;-72
2021/12/27 02:51:13;;;;;;;0.60;0.60;;;;;;;;;;5093496;28;20777;-72
2021/12/27 02:53:38;;;;;;;0.50;0.50;;;;;;;;;;5092974;28;20569;-72
2021/12/27 02:56:06;;;;;;;0.53;0.50;;;;;;;;;;5093600;28;20872;-72
2021/12/27 02:58:32;;;;;;;0.50;0.50;;;;;;;;;;5093372;28;20512;-72
2021/12/27 03:01:06;;;;;;;0.97;0.50;;;;;;;;;;5093079;28;20413;-72
2021/12/27 03:03:33;;;;;;;0.40;0.40;;;;;;;;;;5093625;28;20397;-72
2021/12/27 03:05:59;;;;;;;2.30;0.60;;;;;;;;;;5093347;28;20415;-72
2021/12/27 03:08:26;;;;;;;0.50;0.50;;;;;;;;;;5093086;28;20555;-72
2021/12/27 03:10:53;;;;;;;1.10;0.50;;;;;;;;;;5093248;28;20771;-72
2021/12/27 03:13:30;;;;;;;0.33;0.33;;;;;;;;;;5093044;28;20445;-73
2021/12/27 03:16:00;;;;;;;0.30;0.30;;;;;;;;;;5093063;28;20424;-73
2021/12/27 03:18:26;;;;;;;0.50;0.50;;;;;;;;;;5093265;28;20798;-73
2021/12/27 03:20:53;;;;;;;0.30;0.30;;;;;;;;;;5093006;28;20923;-73
2021/12/27 03:23:20;;;;;;;0.30;0.30;;;;;;;;;;5093071;28;20412;-72
2021/12/27 03:25:46;;;;;;;0.77;0.47;;;;;;;;;;5093437;28;20904;-73
2021/12/27 03:28:12;;;;;;;0.40;0.40;;;;;;;;;;5093024;28;20472;-72
2021/12/27 03:30:39;;;;;;;0.73;0.60;;;;;;;;;;5092650;28;20779;-72
2021/12/27 03:33:06;;;;;;;1.50;0.40;;;;;;;;;;5092634;28;20420;-73
2021/12/27 03:35:36;;;;;;;0.50;0.50;;;;;;;;;;5092821;28;20449;-72
2021/12/27 03:38:05;;;;;;;0.40;0.40;;;;;;;;;;5093137;28;21111;-72
2021/12/27 03:40:31;;;;;;;0.30;0.30;;;;;;;;;;5092767;28;20412;-72
2021/12/27 03:42:57;;;;;;;0.77;0.77;;;;;;;;;;5092769;28;20405;-73
2021/12/27 03:45:34;;;;;;;0.30;0.30;;;;;;;;;;5092957;28;20413;-72
2021/12/27 03:48:00;;;;;;;0.40;0.40;;;;;;;;;;5093214;28;20452;-72
2021/12/27 03:50:27;;;;;;;0.40;0.40;;;;;;;;;;5092693;28;20428;-72
2021/12/27 03:52:54;;;;;;;1.43;0.50;;;;;;;;;;5107983;28;20809;-72
2021/12/27 03:55:20;;;;;;;0.30;0.30;;;;;;;;;;5095980;28;20960;-72
2021/12/27 03:58:06;;;;;;;0.30;0.30;;;;;;;;;;5096570;28;20416;-72
2021/12/27 04:00:46;;;;;;;3.20;0.40;;;;;;;;;;5096602;28;20409;-72
2021/12/27 04:03:12;;;;;;;0.30;0.30;;;;;;;;;;5096320;28;20984;-72
2021/12/27 04:05:38;;;;;;;0.30;0.30;;;;;;;;;;5096167;28;20416;-72
2021/12/27 04:08:09;;;;;;;0.70;0.40;;;;;;;;;;5095796;28;20841;-72
2021/12/27 04:10:35;;;;;;;0.40;0.40;;;;;;;;;;5096370;28;20398;-72
2021/12/27 04:13:01;;;;;;;0.43;0.43;;;;;;;;;;5096038;28;20413;-72
2021/12/27 04:15:27;;;;;;;0.30;0.30;;;;;;;;;;5096278;28;20743;-72
2021/12/27 04:17:53;;;;;;;0.30;0.30;;;;;;;;;;5096125;28;20461;-72
2021/12/27 04:20:20;;;;;;;0.47;0.40;;;;;;;;;;5096409;28;20408;-73
2021/12/27 04:22:46;;;;;;;0.30;0.30;;;;;;;;;;5096139;28;20408;-72
2021/12/27 04:25:12;;;;;;;0.40;0.40;;;;;;;;;;5095783;28;20413;-72
2021/12/27 04:27:38;;;;;;;0.73;0.30;;;;;;;;;;5095530;28;20537;-72
2021/12/27 04:30:04;;;;;;;0.43;0.40;;;;;;;;;;5095725;28;20901;-72
2021/12/27 04:32:30;;;;;;;0.30;0.30;;;;;;;;;;5095741;28;20412;-72
2021/12/27 04:34:57;;;;;;;0.30;0.30;;;;;;;;;;5095761;28;20451;-72
2021/12/27 04:37:23;;;;;;;0.40;0.40;;;;;;;;;;5096240;28;20512;-72
2021/12/27 04:39:49;;;;;;;0.80;0.33;;;;;;;;;;5095470;28;20429;-72
2021/12/27 04:42:17;;;;;;;0.33;0.33;;;;;;;;;;5095797;28;20413;-72
2021/12/27 04:44:43;;;;;;;0.60;0.30;;;;;;;;;;5095283;28;20873;-72
2021/12/27 04:47:12;;;;;;;0.47;0.47;;;;;;;;;;5095096;28;20508;-72
2021/12/27 04:49:39;;;;;;;0.30;0.30;;;;;;;;;;5095592;28;20429;-72
2021/12/27 04:52:05;;;;;;;0.40;0.40;;;;;;;;;;5095569;28;20425;-72
2021/12/27 04:54:31;;;;;;;4.27;0.43;;;;;;;;;;5095182;28;20476;-72
2021/12/27 04:56:57;;;;;;;4.10;0.67;;;;;;;;;;5095222;28;20408;-72
2021/12/27 04:59:23;;;;;;;0.73;0.40;;;;;;;;;;5095287;28;20492;-73
2021/12/27 05:01:49;;;;;;;0.30;0.30;;;;;;;;;;5095183;28;20961;-73
2021/12/27 05:04:15;;;;;;;0.40;0.30;;;;;;;;;;5095153;28;20440;-72
2021/12/27 05:06:41;;;;;;;0.40;0.40;;;;;;;;;;5095519;28;20420;-72
2021/12/27 05:09:07;;;;;;;2.03;1.23;;;;;;;;;;5094739;28;20593;-73
2021/12/27 05:11:33;;;;;;;0.70;0.50;;;;;;;;;;5094919;28;20409;-73
2021/12/27 05:13:59;;;;;;;0.40;0.40;;;;;;;;;;5095108;28;20509;-72
2021/12/27 05:16:25;;;;;;;0.30;0.30;;;;;;;;;;5095152;28;20919;-72
2021/12/27 05:18:51;;;;;;;0.30;0.30;;;;;;;;;;5094537;28;20428;-72
2021/12/27 05:21:17;;;;;;;0.37;0.37;;;;;;;;;;5094768;28;20412;-72
2021/12/27 05:23:43;;;;;;;3.77;0.47;;;;;;;;;;5094708;28;20843;-73
2021/12/27 05:26:09;;;;;;;2.20;0.50;;;;;;;;;;5094845;28;21010;-72
2021/12/27 05:28:35;;;;;;;0.50;0.50;;;;;;;;;;5094227;28;20508;-73
2021/12/27 05:31:01;;;;;;;1.27;0.50;;;;;;;;;;5094488;28;20444;-72
2021/12/27 05:33:27;;;;;;;0.60;0.60;;;;;;;;;;5094705;28;20417;-72
2021/12/27 05:35:53;;;;;;;0.50;0.50;;;;;;;;;;5094378;28;21030;-72
2021/12/27 05:38:19;;;;;;;0.63;0.63;;;;;;;;;;5094339;28;20512;-72
2021/12/27 05:40:45;;;;;;;0.60;0.60;;;;;;;;;;5094523;28;20413;-72
2021/12/27 05:43:11;;;;;;;0.50;0.50;;;;;;;;;;5094550;28;20899;-72
2021/12/27 05:45:37;;;;;;;0.43;0.43;;;;;;;;;;5094188;28;20405;-72
2021/12/27 05:48:04;;;;;;;0.50;0.50;;;;;;;;;;5094323;28;20506;-72
2021/12/27 05:50:30;;;;;;;0.50;0.50;;;;;;;;;;5094223;28;20417;-73
2021/12/27 05:52:56;;;;;;;0.67;0.67;;;;;;;;;;5094379;28;20466;-72
2021/12/27 05:55:23;;;;;;;0.50;0.50;;;;;;;;;;5093911;28;20971;-73
2021/12/27 05:57:49;;;;;;;0.63;0.63;;;;;;;;;;5094084;28;20428;-72
2021/12/27 06:00:15;;;;;;;0.53;0.50;;;;;;;;;;5093677;28;20413;-73
2021/12/27 06:02:42;;;;;;;0.50;0.50;;;;;;;;;;5094149;28;20416;-72
2021/12/27 06:05:08;;;;;;;0.57;0.53;;;;;;;;;;5093884;28;20424;-72
2021/12/27 06:07:34;;;;;;;0.50;0.40;;;;;;;;;;5094185;28;20467;-72
2021/12/27 06:10:00;;;;;;;0.67;0.67;;;;;;;;;;5093927;28;20475;-72
2021/12/27 06:12:26;;;;;;;0.73;0.50;;;;;;;;;;5094464;28;20409;-72
2021/12/27 06:14:52;;;;;;;0.40;0.40;;;;;;;;;;5094130;28;20424;-72
2021/12/27 06:17:18;;;;;;;3.63;1.50;;;;;;;;;;5093150;28;20496;-72
2021/12/27 06:19:44;;;;;;;1.17;1.17;;;;;;;;;;5094131;28;20450;-72
2021/12/27 06:22:11;;;;;;;11.10;1.87;;;;;;;;;;5093699;28;20780;-73
2021/12/27 06:24:36;;;;;;;1.47;1.30;;;;;;;;;;5093931;28;20781;-72
2021/12/27 06:27:03;;;;;;;3.30;2.97;;;;;;;;;;5093556;28;20420;-72
2021/12/27 06:29:29;;;;;;;2.30;2.20;;;;;;;;;;5093044;28;20468;-72
2021/12/27 06:31:54;;;;;;;1.53;1.43;;;;;;;;;;5093893;28;20439;-72
2021/12/27 06:34:20;;;;;;;0.90;0.90;;;;;;;;;;5093416;28;20416;-72
2021/12/27 06:36:46;;;;;;;0.90;0.90;;;;;;;;;;5093324;28;20420;-72
2021/12/27 06:39:12;;;;;;;1.10;1.10;;;;;;;;;;5093487;28;20573;-72
2021/12/27 06:41:38;;;;;;;2.00;1.30;;;;;;;;;;5093359;28;20944;-72
2021/12/27 06:44:05;;;;;;;1.33;1.27;;;;;;;;;;5093153;28;20440;-72
2021/12/27 06:46:31;;;;;;;1.17;1.17;;;;;;;;;;5093187;28;20786;-73
2021/12/27 06:48:57;;;;;;;1.17;1.17;;;;;;;;;;5092847;28;20464;-72
2021/12/27 06:51:23;;;;;;;1.60;1.60;;;;;;;;;;5093655;28;20416;-73
2021/12/27 06:53:49;;;;;;;1.33;1.20;;;;;;;;;;5093109;28;20456;-72
2021/12/27 06:56:15;;;;;;;1.50;1.50;;;;;;;;;;5093401;28;20897;-72
2021/12/27 06:58:41;;;;;;;1.20;1.10;;;;;;;;;;5093144;28;20489;-72
2021/12/27 07:01:08;;;;;;;1.30;1.20;;;;;;;;;;5093351;28;20420;-72
2021/12/27 07:03:37;;;;;;;1.20;1.20;;;;;;;;;;5092848;28;20469;-72
2021/12/27 07:06:03;;;;;;;2.30;1.77;;;;;;;;;;5092988;28;20421;-72
2021/12/27 07:08:29;;;;;;;1.00;1.00;;;;;;;;;;5093315;28;20460;-72
2021/12/27 07:10:55;;;;;;;1.47;1.37;;;;;;;;;;5093163;28;20428;-73
2021/12/27 07:13:21;;;;;;;0.60;0.60;;;;;;;;;;5092837;28;20501;-73
2021/12/27 07:15:47;;;;;;;2.20;2.20;;;;;;;;;;5092859;28;20521;-72
2021/12/27 07:18:16;;;;;;;0.80;0.80;;;;;;;;;;5092882;28;20413;-71
2021/12/27 07:20:42;;;;;;;0.70;0.70;;;;;;;;;;5093017;28;20412;-72
2021/12/27 07:23:08;;;;;;;0.70;0.70;;;;;;;;;;5092726;28;20957;-72
2021/12/27 07:25:34;;;;;;;0.60;0.60;;;;;;;;;;5092810;28;20409;-72
2021/12/27 07:28:00;;;;;;;1.03;1.03;;;;;;;;;;5092414;28;20837;-72
2021/12/27 07:30:28;;;;;;;0.90;0.90;;;;;;;;;;5096697;28;20408;-72
2021/12/27 07:32:54;;;;;;;0.90;0.90;;;;;;;;;;5096504;28;20416;-72
2021/12/27 07:35:20;;;;;;;1.60;1.47;;;;;;;;;;5096220;28;20415;-72
2021/12/27 07:37:46;;;;;;;1.23;0.90;;;;;;;;;;5096700;28;20405;-75
2021/12/27 07:40:12;;;;;;;1.70;1.07;;;;;;;;;;5097112;28;20423;-73
2021/12/27 07:42:39;;;;;;;1.23;1.23;;;;;;;;;;5096597;28;20465;-72
2021/12/27 07:45:05;;;;;;;0.93;0.93;;;;;;;;;;5096548;28;20550;-71
2021/12/27 07:47:31;;;;;;;0.90;0.90;;;;;;;;;;5096208;28;20404;-72
2021/12/27 07:49:57;;;;;;;1.00;1.00;;;;;;;;;;5095226;28;20455;-73
2021/12/27 07:52:23;;;;;;;0.60;0.60;;;;;;;;;;5096437;28;20806;-72
2021/12/27 07:54:49;;;;;;;1.03;1.03;;;;;;;;;;5096125;28;20482;-72
2021/12/27 07:57:16;;;;;;;0.90;0.90;;;;;;;;;;5096400;28;20405;-72
2021/12/27 07:59:42;;;;;;;0.90;0.90;;;;;;;;;;5096072;28;20505;-71
2021/12/27 08:02:11;;;;;;;1.33;1.33;;;;;;;;;;5096101;28;20413;-72
2021/12/27 08:04:37;;;;;;;1.37;1.30;;;;;;;;;;5096446;28;20429;-72
2021/12/27 08:07:04;;;;;;;1.30;1.30;;;;;;;;;;5096257;28;20487;-72
2021/12/27 08:09:30;;;;;;;1.27;1.27;;;;;;;;;;5096507;28;20521;-72
2021/12/27 08:11:56;;;;;;;1.53;1.43;;;;;;;;;;5096194;28;20731;-72
2021/12/27 08:14:22;;;;;;;3.67;2.50;;;;;;;;;;5096252;28;20435;-72
2021/12/27 08:16:48;;;;;;;1.83;1.33;;;;;;;;;;5095798;28;20811;-72
2021/12/27 08:19:14;;;;;;;2.27;2.10;;;;;;;;;;5095575;28;20928;-73
2021/12/27 08:21:40;;;;;;;1.73;1.63;;;;;;;;;;5095767;28;20459;-72
2021/12/27 08:24:07;;;;;;;2.50;2.40;;;;;;;;;;5095528;28;20416;-71
2021/12/27 08:26:33;;;;;;;2.27;2.17;;;;;;;;;;5096066;28;20436;-71
2021/12/27 08:29:01;;;;;;;2.07;2.07;;;;;;;;;;5095307;28;21013;-71
2021/12/27 08:31:27;;;;;;;2.57;2.47;;;;;;;;;;5095908;28;20420;-71
2021/12/27 08:33:55;;;;;;;1.97;1.97;;;;;;;;;;5096170;28;20428;-73
2021/12/27 08:36:22;;;;;;;2.87;2.77;;;;;;;;;;5095821;28;20423;-72
2021/12/27 08:38:49;;;;;;;2.73;2.63;;;;;;;;;;5095021;28;20534;-79
2021/12/27 08:41:16;;;;;;;2.73;2.63;;;;;;;;;;5110848;28;20416;-72
2021/12/27 08:43:42;;;;;;;2.40;2.40;;;;;;;;;;5095291;28;20436;-72
2021/12/27 08:46:08;;;;;;;3.03;2.97;;;;;;;;;;5095603;28;20429;-72
2021/12/27 08:48:35;;;;;;;2.90;2.80;;;;;;;;;;5095221;28;20479;-72
2021/12/27 08:51:00;;;;;;;3.23;3.13;;;;;;;;;;5095124;28;20418;-72
2021/12/27 08:53:26;;;;;;;3.13;3.13;;;;;;;;;;5095097;28;20782;-73
2021/12/27 08:55:52;;;;;;;3.90;3.30;;;;;;;;;;5095773;28;20405;-72
2021/12/27 08:58:19;;;;;;;2.83;2.73;;;;;;;;;;5095385;28;20503;-72
2021/12/27 09:00:45;;;;;;;5.70;3.20;;;;;;;;;;5095225;28;20417;-72
2021/12/27 09:03:14;;;;;;;4.13;3.93;;;;;;;;;;5094921;28;20417;-73
2021/12/27 09:05:40;;;;;;;2.87;2.70;;;;;;;;;;5095081;28;20445;-72
2021/12/27 09:08:06;;;;;;;2.97;2.87;;;;;;;;;;5094655;28;20475;-72
2021/12/27 09:10:33;;;;;;;3.90;3.73;;;;;;;;;;5095182;28;20408;-72
2021/12/27 09:13:00;;;;;;;2.97;2.87;;;;;;;;;;5094612;28;20482;-72
2021/12/27 09:15:30;;;;;;;3.50;3.40;;;;;;;;;;5094810;28;20520;-73
2021/12/27 09:17:56;;;;;;;2.97;2.87;;;;;;;;;;5094450;28;20558;-72
2021/12/27 09:20:24;;;;;;;3.87;3.67;;;;;;;;;;5094630;28;20465;-72
2021/12/27 09:22:50;;;;;;;4.00;3.80;;;;;;;;;;5094726;28;20408;-73
2021/12/27 09:25:16;;;;;;;4.20;4.03;;;;;;;;;;5094875;28;20412;-72
2021/12/27 09:27:42;;;;;;;3.70;3.50;;;;;;;;;;5094491;28;20471;-72
2021/12/27 09:30:08;;;;;;;3.20;3.10;;;;;;;;;;5094612;28;20908;-73
2021/12/27 09:32:34;;;;;;;3.70;3.60;;;;;;;;;;5094444;28;20427;-73
2021/12/27 09:35:00;;;;;;;4.20;3.47;;;;;;;;;;5094496;28;20417;-73
2021/12/27 09:37:26;;;;;;;4.10;3.87;;;;;;;;;;5109905;28;20408;-72
2021/12/27 09:39:55;;;;;;;4.20;4.00;;;;;;;;;;5094299;28;20536;-74
2021/12/27 09:42:22;;;;;;;3.30;3.20;;;;;;;;;;5109874;28;20417;-73
2021/12/27 09:44:48;;;;;;;2.90;2.80;;;;;;;;;;5109782;28;20421;-73
2021/12/27 09:47:14;;;;;;;3.07;2.87;;;;;;;;;;5094267;28;20412;-72
2021/12/27 09:49:41;;;;;;;3.43;3.27;;;;;;;;;;5094020;28;20514;-73
2021/12/27 09:52:07;;;;;;;4.07;3.97;;;;;;;;;;5093070;28;20432;-73
2021/12/27 09:54:33;;;;;;;3.90;3.80;;;;;;;;;;5094127;28;20545;-74
2021/12/27 09:56:59;;;;;;;3.53;3.30;;;;;;;;;;5093841;28;20515;-73
2021/12/27 09:59:25;;;;;;;3.33;3.27;;;;;;;;;;5094233;28;20513;-73
2021/12/27 10:01:52;;;;;;;4.37;4.10;;;;;;;;;;5093739;28;20896;-73
2021/12/27 10:04:19;;;;;;;3.70;3.60;;;;;;;;;;5093690;28;20413;-72
2021/12/27 10:06:45;;;;;;;3.77;3.50;;;;;;;;;;5109893;28;20503;-72
2021/12/27 10:09:11;;;;;;;4.37;4.10;;;;;;;;;;5109327;28;20468;-72
2021/12/27 10:11:42;;;;;;;3.97;3.77;;;;;;;;;;5093868;28;20497;-72
2021/12/27 10:14:19;;;;;;;3.57;3.40;;;;;;;;;;5093844;28;20424;-72
2021/12/27 10:16:50;;;;;;;3.80;3.70;;;;;;;;;;5093762;28;20413;-72
2021/12/27 10:19:17;;;;;;;3.23;3.13;;;;;;;;;;5093769;28;20401;-72
2021/12/27 10:21:44;;;;;;;4.07;3.77;;;;;;;;;;5093367;28;20405;-72
2021/12/27 10:24:19;;;;;;;3.10;3.00;;;;;;;;;;5093660;28;20481;-72
2021/12/27 10:26:46;;;;;;;3.10;3.00;;;;;;;;;;5093526;28;20408;-72
2021/12/27 10:29:13;;;;;;;3.00;2.90;;;;;;;;;;5092027;28;20968;-72
2021/12/27 10:31:58;;;;;;;6.10;2.70;;;;;;;;;;5093350;28;20481;-72
2021/12/27 10:34:46;;;;;;;3.10;3.10;;;;;;;;;;5093173;28;20460;-72
2021/12/27 10:37:14;;;;;;;3.27;3.17;;;;;;;;;;5093429;28;20419;-72
2021/12/27 10:39:57;;;;;;;3.03;2.90;;;;;;;;;;5108841;28;20490;-72
2021/12/27 10:42:25;;;;;;;3.27;3.17;;;;;;;;;;5092924;28;20951;-72
2021/12/27 10:44:53;;;;;;;3.40;3.30;;;;;;;;;;5108812;28;20490;-73
2021/12/27 10:47:26;;;;;;;2.60;2.50;;;;;;;;;;5094035;28;20524;-72
2021/12/27 10:49:53;;;;;;;3.80;3.70;;;;;;;;;;5093722;28;20447;-72
2021/12/27 10:52:20;;;;;;;3.87;3.33;;;;;;;;;;5093159;28;20452;-77
2021/12/27 10:54:46;;;;;;;3.73;3.40;;;;;;;;;;5108692;28;20461;-72
2021/12/27 10:57:12;;;;;;;7.17;6.47;;;;;;;;;;5108563;28;20428;-72
2021/12/27 10:59:38;;;;;;;6.13;5.63;;;;;;;;;;5093060;28;20782;-73
2021/12/27 11:02:09;;;;;;;4.70;4.40;;;;;;;;;;5092989;28;20889;-72
2021/12/27 11:04:36;;;;;;;8.67;6.80;;;;;;;;;;5097576;28;20772;-71
2021/12/27 11:07:03;;;;;;;23.47;12.37;;;;;;;;;;5112896;28;20421;-72
2021/12/27 11:09:29;;;;;;;11.10;8.77;;;;;;;;;;5096906;28;20858;-72
2021/12/27 11:11:55;;;;;;;5.97;5.60;;;;;;;;;;5096919;28;20444;-73
2021/12/27 11:14:21;;;;;;;3.90;3.80;;;;;;;;;;5096975;28;20866;-72
2021/12/27 11:16:47;;;;;;;4.00;3.53;;;;;;;;;;5096938;28;20420;-72
2021/12/27 11:19:13;;;;;;;3.87;3.77;;;;;;;;;;5096819;28;20432;-72
2021/12/27 11:21:45;;;;;;;12.10;10.90;;;;;;;;;;5095135;28;20500;-72
2021/12/27 11:24:12;;;;;;;21.20;12.27;;;;;;;;;;5097116;28;20480;-72
2021/12/27 11:26:40;;;;;;;8.67;7.87;;;;;;;;;;5096551;28;20468;-75
2021/12/27 11:29:11;;;;;;;13.97;9.70;;;;;;;;;;5096754;28;20556;-72
2021/12/27 11:31:38;;;;;;;5.83;5.43;;;;;;;;;;5097351;28;20815;-70
2021/12/27 11:34:06;;;;;;;14.63;11.00;;;;;;;;;;5096589;28;20524;-73
2021/12/27 11:36:36;;;;;;;5.90;5.50;;;;;;;;;;5096307;28;20967;-74
2021/12/27 11:39:22;;;;;;;9.57;8.80;;;;;;;;;;5097051;28;20401;-73
2021/12/27 11:42:04;;;;;;;4.60;4.20;;;;;;;;;;5096477;28;20491;-72
2021/12/27 11:44:45;;;;;;;5.13;4.80;;;;;;;;;;5096383;28;20440;-72
2021/12/27 11:47:12;;;;;;;5.00;4.80;;;;;;;;;;5096224;28;20424;-72
2021/12/27 11:49:45;;;;;;;4.80;4.60;;;;;;;;;;5111823;28;21039;-73
2021/12/27 11:52:16;;;;;;;6.43;3.13;;;;;;;;;;5096353;28;20392;-72
2021/12/27 11:54:50;;;;;;;4.33;4.10;;;;;;;;;;5096280;28;20462;-72
2021/12/27 11:57:42;;;;;;;4.17;3.97;;;;;;;;;;5111863;28;20495;-72
2021/12/27 12:00:17;;;;;;;4.37;4.17;;;;;;;;;;5094082;28;20433;-72
2021/12/27 12:02:54;;;;;;;4.33;4.13;;;;;;;;;;5095991;28;20428;-73
2021/12/27 12:05:45;;;;;;;4.50;3.60;;;;;;;;;;5096294;28;20435;-74
2021/12/27 12:08:15;;;;;;;3.83;3.70;;;;;;;;;;5096086;28;20449;-74
2021/12/27 12:11:00;;;;;;;5.80;4.10;;;;;;;;;;5095771;28;20866;-73
2021/12/27 12:13:42;;;;;;;3.67;3.43;;;;;;;;;;5096110;28;20445;-72
2021/12/27 12:16:11;;;;;;;4.27;3.77;;;;;;;;;;5095665;28;20499;-71
2021/12/27 12:19:03;;;;;;;3.63;3.53;;;;;;;;;;5095710;28;20420;-71
2021/12/27 12:21:35;;;;;;;4.23;3.93;;;;;;;;;;5095375;28;20433;-74
2021/12/27 12:24:04;;;;;;;4.13;3.77;;;;;;;;;;5095695;28;20413;-73
2021/12/27 12:26:50;;;;;;;4.90;4.37;;;;;;;;;;5095392;28;20424;-73
2021/12/27 12:29:16;;;;;;;4.07;3.10;;;;;;;;;;5095359;28;20990;-72
2021/12/27 12:31:42;;;;;;;3.10;3.00;;;;;;;;;;5095549;28;20959;-72
2021/12/27 12:34:09;;;;;;;3.90;3.70;;;;;;;;;;5096059;28;20503;-72
2021/12/27 12:37:07;;;;;;;3.50;3.33;;;;;;;;;;5095597;28;20470;-72
2021/12/27 12:39:50;;;;;;;5.53;4.90;;;;;;;;;;5061684;28;20425;-72
2021/12/27 12:42:24;;;;;;;4.10;3.90;;;;;;;;;;5095327;28;20777;-72
2021/12/27 12:44:50;;;;;;;6.50;6.10;;;;;;;;;;5095123;28;20880;-71
2021/12/27 12:47:19;;;;;;;5.00;4.80;;;;;;;;;;5095099;28;20427;-73
2021/12/27 12:49:45;;;;;;;3.67;3.57;;;;;;;;;;5111013;28;20463;-71
2021/12/27 12:52:11;;;;;;;3.70;3.50;;;;;;;;;;5095396;28;20424;-71
2021/12/27 12:54:40;;;;;;;3.80;3.57;;;;;;;;;;5110740;28;20840;-72
2021/12/27 12:57:07;;;;;;;3.20;2.97;;;;;;;;;;5095029;28;20520;-72
2021/12/27 12:59:34;;;;;;;8.60;7.87;;;;;;;;;;5095607;28;20417;-71
2021/12/27 13:02:09;;;;;;;4.90;4.60;;;;;;;;;;5095005;28;20461;-74
2021/12/27 13:04:52;;;;;;;4.70;4.40;;;;;;;;;;5110567;28;20778;-72
2021/12/27 13:07:36;;;;;;;3.97;3.77;;;;;;;;;;5094995;28;20420;-72
2021/12/27 13:10:07;;;;;;;3.30;3.20;;;;;;;;;;5110259;28;20436;-71
2021/12/27 13:12:33;;;;;;;3.83;3.53;;;;;;;;;;5094817;28;20416;-73
2021/12/27 13:15:08;;;;;;;3.60;3.50;;;;;;;;;;5094729;28;20439;-72
2021/12/27 13:17:37;;;;;;;4.27;4.07;;;;;;;;;;5094989;28;20954;-73
2021/12/27 13:20:16;;;;;;;3.93;3.83;;;;;;;;;;5094932;28;20460;-72
2021/12/27 13:22:53;;;;;;;4.90;4.50;;;;;;;;;;5094669;28;20412;-71
2021/12/27 13:25:36;;;;;;;3.60;3.30;;;;;;;;;;5094425;28;20916;-74
2021/12/27 13:28:10;;;;;;;4.50;4.40;;;;;;;;;;5094462;28;20472;-72
2021/12/27 13:30:47;;;;;;;5.23;4.93;;;;;;;;;;5094618;28;20507;-73
2021/12/27 13:33:14;;;;;;;4.17;3.97;;;;;;;;;;5094427;28;20417;-72
2021/12/27 13:35:40;;;;;;;3.83;3.63;;;;;;;;;;5094058;28;20957;-72
2021/12/27 13:38:26;;;;;;;3.43;3.33;;;;;;;;;;5094715;28;20429;-72
2021/12/27 13:41:00;;;;;;;3.47;3.27;;;;;;;;;;5109842;28;20478;-72
2021/12/27 13:43:27;;;;;;;4.20;4.03;;;;;;;;;;5094133;28;20551;-71
2021/12/27 13:45:53;;;;;;;10.40;8.30;;;;;;;;;;5094325;28;20420;-72
2021/12/27 13:48:30;;;;;;;4.17;4.07;;;;;;;;;;5094070;28;20468;-72
2021/12/27 13:50:56;;;;;;;5.50;4.17;;;;;;;;;;5094072;28;20419;-74
2021/12/27 13:53:22;;;;;;;4.43;4.23;;;;;;;;;;5094177;28;20431;-75
2021/12/27 13:55:48;;;;;;;5.37;4.97;;;;;;;;;;5093890;28;20401;-75
2021/12/27 13:58:16;;;;;;;3.90;3.80;;;;;;;;;;5093928;28;20420;-73
2021/12/27 14:00:42;;;;;;;4.53;4.33;;;;;;;;;;5094046;28;20492;-73
2021/12/27 14:03:29;;;;;;;4.17;3.90;;;;;;;;;;5093878;28;20417;-72
2021/12/27 14:05:56;;;;;;;3.63;3.33;;;;;;;;;;5093721;28;20416;-72
2021/12/27 14:08:24;;;;;;;3.90;3.53;;;;;;;;;;5093939;28;20476;-71
2021/12/27 14:11:02;;;;;;;4.40;4.10;;;;;;;;;;5093632;28;20420;-74
2021/12/27 14:14:03;;;;;;;3.10;3.00;;;;;;;;;;5093956;28;20416;-71
2021/12/27 14:16:31;;;;;;;6.00;5.57;;;;;;;;;;5031379;28;20469;-71
2021/12/27 14:19:04;;;;;;;7.03;4.77;;;;;;;;;;5082213;28;20417;-72
2021/12/27 14:21:30;;;;;;;3.93;3.70;;;;;;;;;;5093207;28;20420;-72
2021/12/27 14:24:04;;;;;;;12.80;9.70;;;;;;;;;;5093266;28;20926;-72
2021/12/27 14:26:30;;;;;;;7.63;6.67;;;;;;;;;;5093597;28;20467;-73
2021/12/27 14:29:14;;;;;;;6.03;5.67;;;;;;;;;;5093435;28;20959;-71
2021/12/27 14:31:40;;;;;;;5.97;5.37;;;;;;;;;;5093186;28;20408;-72
2021/12/27 14:34:07;;;;;;;6.03;5.40;;;;;;;;;;5093087;28;20421;-71
2021/12/27 14:36:32;;;;;;;4.80;4.47;;;;;;;;;;5093496;28;20415;-71
2021/12/27 14:38:58;;;;;;;6.20;5.37;;;;;;;;;;5093173;28;20512;-71
2021/12/27 14:41:30;;;;;;;6.13;5.60;;;;;;;;;;5092807;28;20470;-72
2021/12/27 14:43:56;;;;;;;5.80;4.53;;;;;;;;;;5093040;28;20522;-73
2021/12/27 14:46:22;;;;;;;4.27;4.00;;;;;;;;;;5092630;28;20417;-73
2021/12/27 14:48:48;;;;;;;11.00;5.60;;;;;;;;;;5092944;28;20472;-72
2021/12/27 14:51:14;;;;;;;7.50;5.77;;;;;;;;;;5092853;28;20419;-72
2021/12/27 14:53:40;;;;;;;11.13;6.03;;;;;;;;;;5092920;28;20463;-71
2021/12/27 14:56:06;;;;;;;8.30;6.87;;;;;;;;;;5092967;28;20416;-72